Time;durP1;ratioP1;P1;durP2;ratioP2;P2;SDS_P1;SDS_P2;PMS_P1;PMS_P2;Temp;Humidity;BMP_temperature;BMP_pressure;BME280_temperature;BME280_humidity;BME280_pressure;Samples;Min_cycle;Max_cycle;Signal;HPM_P1;HPM_P2
2023/12/10 00:01:49;;;;;;;26.17;14.37;;;;;;;-0.27;100.00;98328.03;5093901;28;20271;-81
2023/12/10 00:04:20;;;;;;;26.07;14.80;;;;;;;-0.22;100.00;98317.78;5095457;28;20657;-79
2023/12/10 00:06:49;;;;;;;27.97;15.93;;;;;;;-0.27;100.00;98319.31;5095140;28;20227;-79
2023/12/10 00:09:17;;;;;;;25.30;13.90;;;;;;;-0.18;100.00;98312.94;5095283;28;20664;-80
2023/12/10 00:11:46;;;;;;;25.80;15.00;;;;;;;-0.23;100.00;98336.38;5095541;28;20184;-79
2023/12/10 00:14:13;;;;;;;25.77;15.40;;;;;;;-0.27;100.00;98325.41;5094095;28;20715;-78
2023/12/10 00:16:40;;;;;;;28.00;15.13;;;;;;;-0.27;100.00;98333.28;5093942;28;20188;-78
2023/12/10 00:19:15;;;;;;;23.87;14.43;;;;;;;-0.23;100.00;98331.09;5093918;28;20192;-79
2023/12/10 00:21:42;;;;;;;24.10;14.57;;;;;;;-0.31;100.00;98318.03;5101824;28;20192;-80
2023/12/10 00:24:10;;;;;;;28.03;15.00;;;;;;;-0.22;100.00;98315.13;5097814;28;20222;-76
2023/12/10 00:26:37;;;;;;;26.23;15.03;;;;;;;-0.27;100.00;98311.41;5103311;28;20222;-77
2023/12/10 00:29:04;;;;;;;21.33;14.00;;;;;;;-0.30;100.00;98319.69;5107985;28;20187;-80
2023/12/10 00:31:31;;;;;;;24.30;14.70;;;;;;;-0.33;100.00;98297.19;5107259;28;20196;-77
2023/12/10 00:33:58;;;;;;;21.77;13.70;;;;;;;-0.33;100.00;98288.47;5105442;28;20227;-79
2023/12/10 00:36:25;;;;;;;26.57;14.90;;;;;;;-0.37;100.00;98303.00;5102099;28;20191;-77
2023/12/10 00:38:55;;;;;;;26.83;15.53;;;;;;;-0.41;100.00;98291.19;5103341;28;20671;-76
2023/12/10 00:41:22;;;;;;;25.70;15.30;;;;;;;-0.44;100.00;98292.38;5108610;28;20210;-77
2023/12/10 00:43:52;;;;;;;23.03;14.13;;;;;;;-0.39;100.00;98287.38;5080179;28;20201;-77
2023/12/10 00:46:21;;;;;;;23.30;14.33;;;;;;;-0.40;100.00;98304.16;5102200;28;20276;-78
2023/12/10 00:48:48;;;;;;;25.00;14.33;;;;;;;-0.24;100.00;98325.06;5102890;28;20187;-78
2023/12/10 00:51:21;;;;;;;26.03;15.13;;;;;;;-0.35;100.00;98332.56;5102409;28;20189;-78
2023/12/10 00:53:48;;;;;;;25.63;14.70;;;;;;;-0.36;100.00;98349.34;5093014;28;20312;-77
2023/12/10 00:56:21;;;;;;;25.83;15.40;;;;;;;-0.32;100.00;98345.34;5109109;28;20195;-77
2023/12/10 00:58:48;;;;;;;23.70;14.90;;;;;;;-0.34;100.00;98365.78;5108151;28;20196;-78
2023/12/10 01:01:14;;;;;;;27.00;16.03;;;;;;;-0.40;100.00;98348.91;5100656;28;20200;-77
2023/12/10 01:03:44;;;;;;;25.73;15.00;;;;;;;-0.32;100.00;98334.81;5096268;28;20184;-78
2023/12/10 01:06:14;;;;;;;26.30;15.17;;;;;;;-0.34;100.00;98336.84;5107213;28;20195;-77
2023/12/10 01:08:43;;;;;;;25.13;14.70;;;;;;;-0.38;100.00;98331.13;5108461;28;20195;-76
2023/12/10 01:11:17;;;;;;;23.90;15.00;;;;;;;-0.31;100.00;98339.91;5099553;28;20191;-76
2023/12/10 01:13:46;;;;;;;22.17;15.00;;;;;;;-0.35;100.00;98349.19;5098962;28;20220;-77
2023/12/10 01:16:16;;;;;;;24.40;14.87;;;;;;;-0.38;100.00;98378.50;5099674;28;20235;-77
2023/12/10 01:18:44;;;;;;;23.60;14.50;;;;;;;-0.38;100.00;98375.06;5098676;28;20218;-78
2023/12/10 01:21:11;;;;;;;25.40;15.43;;;;;;;-0.37;100.00;98368.78;5094480;28;20197;-78
2023/12/10 01:23:38;;;;;;;24.50;14.87;;;;;;;-0.42;100.00;98364.03;5097693;28;20199;-76
2023/12/10 01:26:06;;;;;;;27.53;15.90;;;;;;;-0.40;100.00;98377.03;5100472;28;20184;-78
2023/12/10 01:28:33;;;;;;;27.13;15.33;;;;;;;-0.40;100.00;98384.94;5104186;28;20715;-79
2023/12/10 01:31:00;;;;;;;23.70;16.13;;;;;;;-0.36;100.00;98376.50;5104785;28;20198;-77
2023/12/10 01:33:27;;;;;;;27.67;17.23;;;;;;;-0.34;100.00;98371.06;5106484;28;20196;-78
2023/12/10 01:35:54;;;;;;;26.03;15.90;;;;;;;-0.32;100.00;98374.31;5099173;28;20189;-80
2023/12/10 01:38:22;;;;;;;26.83;16.17;;;;;;;-0.32;100.00;98369.03;5103286;28;20221;-77
2023/12/10 01:40:51;;;;;;;31.10;19.93;;;;;;;-0.36;100.00;98363.34;5113116;28;20302;-79
2023/12/10 01:43:23;;;;;;;27.50;15.97;;;;;;;-0.36;100.00;98379.13;5104393;28;20254;-79
2023/12/10 01:45:53;;;;;;;29.40;17.73;;;;;;;-0.41;100.00;98373.56;5095308;28;20208;-78
2023/12/10 01:48:21;;;;;;;27.73;18.57;;;;;;;-0.41;100.00;98375.38;5111253;28;20265;-77
2023/12/10 01:50:48;;;;;;;30.73;20.13;;;;;;;-0.42;100.00;98368.53;5109591;28;20192;-78
2023/12/10 01:53:19;;;;;;;28.93;17.20;;;;;;;-0.39;100.00;98376.88;5093817;28;20232;-78
2023/12/10 01:55:53;;;;;;;24.30;15.10;;;;;;;-0.44;100.00;98376.59;5096086;28;20199;-77
2023/12/10 01:58:20;;;;;;;26.17;15.67;;;;;;;-0.45;100.00;98378.41;5093724;28;20187;-76
2023/12/10 02:00:48;;;;;;;25.17;15.17;;;;;;;-0.40;100.00;98383.13;5100510;28;20289;-77
2023/12/10 02:03:15;;;;;;;24.33;14.87;;;;;;;-0.44;100.00;98387.09;5094813;28;20245;-76
2023/12/10 02:05:42;;;;;;;26.47;15.17;;;;;;;-0.41;100.00;98375.38;5094680;28;20267;-78
2023/12/10 02:08:09;;;;;;;27.47;15.90;;;;;;;-0.41;100.00;98402.53;5094424;28;20220;-77
2023/12/10 02:10:37;;;;;;;26.20;15.40;;;;;;;-0.43;100.00;98386.13;5096960;28;20249;-76
2023/12/10 02:13:06;;;;;;;26.43;16.00;;;;;;;-0.45;100.00;98412.59;5100555;28;20272;-76
2023/12/10 02:15:33;;;;;;;25.67;14.47;;;;;;;-0.39;100.00;98391.84;5099362;28;20320;-76
2023/12/10 02:18:00;;;;;;;24.37;14.20;;;;;;;-0.39;100.00;98407.63;5103905;27;20211;-76
2023/12/10 02:20:29;;;;;;;23.27;14.73;;;;;;;-0.37;100.00;98414.31;5099731;28;20262;-80
2023/12/10 02:23:04;;;;;;;23.13;14.67;;;;;;;-0.40;100.00;98422.59;5101488;28;20267;-76
2023/12/10 02:25:32;;;;;;;23.07;14.03;;;;;;;-0.40;100.00;98414.69;5092115;28;20192;-76
2023/12/10 02:28:00;;;;;;;24.43;14.77;;;;;;;-0.39;100.00;98408.44;5101187;28;20212;-77
2023/12/10 02:30:27;;;;;;;21.83;13.67;;;;;;;-0.39;100.00;98418.97;5093381;28;20704;-76
2023/12/10 02:32:54;;;;;;;21.13;12.90;;;;;;;-0.33;100.00;98418.25;5092652;28;20271;-77
2023/12/10 02:35:21;;;;;;;22.03;13.83;;;;;;;-0.32;100.00;98421.69;5092528;28;20285;-78
2023/12/10 02:37:49;;;;;;;22.73;13.40;;;;;;;-0.34;100.00;98424.50;5108821;28;20187;-79
2023/12/10 02:40:21;;;;;;;22.37;13.50;;;;;;;-0.35;100.00;98417.59;5106359;28;20199;-76
2023/12/10 02:42:49;;;;;;;22.53;13.50;;;;;;;-0.33;100.00;98433.22;5092454;28;20203;-79
2023/12/10 02:45:16;;;;;;;19.27;13.20;;;;;;;-0.36;100.00;98423.03;5100856;28;20194;-77
2023/12/10 02:47:45;;;;;;;21.03;12.93;;;;;;;-0.39;100.00;98426.88;5102636;28;20215;-76
2023/12/10 02:50:17;;;;;;;20.40;12.40;;;;;;;-0.35;100.00;98428.13;5106258;28;20298;-78
2023/12/10 02:52:45;;;;;;;19.77;12.70;;;;;;;-0.32;100.00;98424.31;5088056;28;20314;-76
2023/12/10 02:55:12;;;;;;;22.60;13.57;;;;;;;-0.32;100.00;98438.28;5105449;28;20191;-77
2023/12/10 02:57:39;;;;;;;22.50;13.70;;;;;;;-0.32;100.00;98448.81;5102883;28;20672;-78
2023/12/10 03:00:10;;;;;;;19.60;13.23;;;;;;;-0.31;100.00;98452.28;5099368;28;20191;-77
2023/12/10 03:02:42;;;;;;;20.77;13.23;;;;;;;-0.30;100.00;98467.06;5099000;28;20196;-76
2023/12/10 03:05:09;;;;;;;22.57;13.50;;;;;;;-0.30;100.00;98444.22;5102114;28;21062;-76
2023/12/10 03:07:36;;;;;;;20.30;13.40;;;;;;;-0.29;100.00;98453.75;5101633;28;20270;-76
2023/12/10 03:10:09;;;;;;;22.23;14.53;;;;;;;-0.25;100.00;98443.66;5092456;28;20203;-76
2023/12/10 03:12:38;;;;;;;20.00;12.83;;;;;;;-0.25;100.00;98418.16;5089217;28;20189;-76
2023/12/10 03:15:09;;;;;;;22.20;14.00;;;;;;;-0.31;100.00;98424.16;5094781;28;20209;-76
2023/12/10 03:17:36;;;;;;;21.13;14.00;;;;;;;-0.29;100.00;98426.59;5097537;28;20185;-77
2023/12/10 03:20:07;;;;;;;24.30;14.27;;;;;;;-0.31;100.00;98423.31;5096773;28;20238;-76
2023/12/10 03:22:34;;;;;;;22.13;14.43;;;;;;;-0.30;100.00;98425.78;5098367;28;20199;-76
2023/12/10 03:25:00;;;;;;;20.17;13.73;;;;;;;-0.32;100.00;98426.94;5110180;28;20180;-78
2023/12/10 03:27:28;;;;;;;23.83;15.13;;;;;;;-0.34;100.00;98418.44;5103199;28;20227;-77
2023/12/10 03:29:55;;;;;;;23.57;14.83;;;;;;;-0.37;100.00;98414.31;5094191;28;20195;-78
2023/12/10 03:32:22;;;;;;;22.40;14.97;;;;;;;-0.34;100.00;98421.06;5095912;28;20195;-77
2023/12/10 03:34:48;;;;;;;22.00;14.03;;;;;;;-0.34;100.00;98427.16;5099467;28;20254;-76
2023/12/10 03:37:17;;;;;;;22.50;13.97;;;;;;;-0.34;100.00;98421.88;5094407;28;20191;-77
2023/12/10 03:39:43;;;;;;;24.93;14.43;;;;;;;-0.29;100.00;98427.44;5104051;28;20191;-76
2023/12/10 03:42:10;;;;;;;21.77;14.13;;;;;;;-0.28;100.00;98436.13;5088866;28;20204;-76
2023/12/10 03:44:41;;;;;;;24.50;14.83;;;;;;;-0.31;100.00;98437.31;5097182;28;20212;-77
2023/12/10 03:47:11;;;;;;;21.70;14.53;;;;;;;-0.32;100.00;98445.38;5099344;28;20203;-79
2023/12/10 03:49:39;;;;;;;21.70;13.90;;;;;;;-0.31;100.00;98450.47;5094392;28;20199;-78
2023/12/10 03:52:08;;;;;;;24.30;15.30;;;;;;;-0.31;100.00;98445.19;5094012;28;20242;-77
2023/12/10 03:54:35;;;;;;;21.07;14.10;;;;;;;-0.28;100.00;98446.66;5098862;28;20196;-78
2023/12/10 03:57:05;;;;;;;25.23;15.57;;;;;;;-0.31;100.00;98453.09;5094442;28;20188;-79
2023/12/10 03:59:32;;;;;;;21.93;14.40;;;;;;;-0.29;100.00;98458.19;5089723;28;20192;-78
2023/12/10 04:01:59;;;;;;;23.97;15.37;;;;;;;-0.29;100.00;98468.72;5093739;28;20196;-79
2023/12/10 04:04:27;;;;;;;27.43;17.17;;;;;;;-0.30;100.00;98465.25;5093526;28;20196;-78
2023/12/10 04:06:53;;;;;;;25.47;15.73;;;;;;;-0.31;100.00;98468.88;5099398;28;20189;-80
2023/12/10 04:09:20;;;;;;;25.87;15.77;;;;;;;-0.33;100.00;98476.16;5079428;28;20202;-78
2023/12/10 04:11:51;;;;;;;23.83;15.30;;;;;;;-0.32;100.00;98484.84;5103727;28;20183;-79
2023/12/10 04:14:18;;;;;;;25.60;15.83;;;;;;;-0.32;100.00;98480.41;5104203;28;20211;-79
2023/12/10 04:16:44;;;;;;;25.00;15.00;;;;;;;-0.33;100.00;98486.69;5097400;28;20204;-80
2023/12/10 04:19:13;;;;;;;23.53;15.80;;;;;;;-0.33;100.00;98491.13;5108445;28;20205;-79
2023/12/10 04:21:40;;;;;;;24.03;15.60;;;;;;;-0.31;100.00;98484.69;5109822;28;20191;-79
2023/12/10 04:24:10;;;;;;;23.70;15.70;;;;;;;-0.29;100.00;98495.84;5109041;28;20191;-79
2023/12/10 04:26:37;;;;;;;23.23;15.40;;;;;;;-0.28;100.00;98486.16;5085942;28;20199;-79
2023/12/10 04:29:04;;;;;;;23.00;15.50;;;;;;;-0.30;100.00;98493.41;5095449;28;20220;-78
2023/12/10 04:31:31;;;;;;;23.00;14.80;;;;;;;-0.30;100.00;98491.59;5090623;28;20660;-78
2023/12/10 04:34:00;;;;;;;24.97;15.53;;;;;;;-0.27;100.00;98491.22;5088954;28;20249;-79
2023/12/10 04:36:27;;;;;;;23.40;15.50;;;;;;;-0.25;100.00;98506.84;5094784;28;20207;-79
2023/12/10 04:38:57;;;;;;;25.47;15.93;;;;;;;-0.23;100.00;98496.94;5101664;28;20187;-80
2023/12/10 04:41:23;;;;;;;23.50;15.63;;;;;;;-0.24;100.00;98517.22;5087126;28;20192;-81
2023/12/10 04:43:51;;;;;;;22.37;15.07;;;;;;;-0.23;100.00;98499.56;5098372;28;20203;-78
2023/12/10 04:46:17;;;;;;;24.70;15.30;;;;;;;-0.31;100.00;98503.09;5096349;28;20204;-78
2023/12/10 04:48:46;;;;;;;23.00;14.90;;;;;;;-0.33;100.00;98493.75;5094776;28;20226;-78
2023/12/10 04:51:20;;;;;;;23.77;14.80;;;;;;;-0.30;100.00;98488.13;5092082;28;20202;-79
2023/12/10 04:53:47;;;;;;;25.03;15.27;;;;;;;-0.28;100.00;98513.25;5092058;28;20239;-79
2023/12/10 04:56:15;;;;;;;23.50;14.77;;;;;;;-0.29;100.00;98508.19;5093976;28;20200;-79
2023/12/10 04:58:47;;;;;;;24.00;15.00;;;;;;;-0.27;100.00;98500.94;5094501;28;20683;-80
2023/12/10 05:01:17;;;;;;;24.93;14.83;;;;;;;-0.24;100.00;98506.69;5079239;28;20238;-81
2023/12/10 05:03:45;;;;;;;23.57;15.07;;;;;;;-0.29;100.00;98503.75;5088434;28;20211;-79
2023/12/10 05:06:15;;;;;;;25.67;15.70;;;;;;;-0.31;100.00;98507.53;5099799;28;20209;-79
2023/12/10 05:08:42;;;;;;;24.27;15.43;;;;;;;-0.34;100.00;98503.47;5097606;28;20298;-79
2023/12/10 05:11:10;;;;;;;22.70;15.43;;;;;;;-0.39;100.00;98518.16;5095028;28;20260;-79
2023/12/10 05:13:39;;;;;;;26.20;15.80;;;;;;;-0.36;100.00;98526.50;5102378;28;20247;-78
2023/12/10 05:16:07;;;;;;;24.93;15.37;;;;;;;-0.39;100.00;98541.84;5097605;28;20203;-79
2023/12/10 05:18:37;;;;;;;24.93;15.63;;;;;;;-0.36;100.00;98534.41;5104746;28;20192;-81
2023/12/10 05:21:06;;;;;;;23.23;16.40;;;;;;;-0.35;100.00;98549.19;5090118;28;20279;-79
2023/12/10 05:23:35;;;;;;;24.67;15.43;;;;;;;-0.31;100.00;98557.56;5085385;28;20671;-79
2023/12/10 05:26:05;;;;;;;24.23;15.83;;;;;;;-0.28;100.00;98575.66;5080405;28;20219;-80
2023/12/10 05:28:34;;;;;;;25.63;16.07;;;;;;;-0.26;100.00;98571.00;5089453;28;20223;-79
2023/12/10 05:31:03;;;;;;;25.57;15.77;;;;;;;-0.25;100.00;98567.38;5096723;28;20192;-79
2023/12/10 05:33:33;;;;;;;25.70;15.90;;;;;;;-0.25;100.00;98559.50;5086965;28;20203;-78
2023/12/10 05:36:02;;;;;;;24.63;15.37;;;;;;;-0.26;100.00;98571.00;5093818;28;20264;-80
2023/12/10 05:38:28;;;;;;;26.60;16.10;;;;;;;-0.24;100.00;98569.84;5097687;28;20188;-79
2023/12/10 05:40:55;;;;;;;21.97;15.53;;;;;;;-0.24;100.00;98563.75;5093940;28;20189;-79
2023/12/10 05:43:22;;;;;;;24.33;15.50;;;;;;;-0.26;100.00;98568.38;5085935;28;20203;-79
2023/12/10 05:45:49;;;;;;;24.23;14.93;;;;;;;-0.30;100.00;98559.19;5092136;28;20191;-79
2023/12/10 05:48:18;;;;;;;22.93;15.30;;;;;;;-0.27;100.00;98580.72;5098388;28;20680;-78
2023/12/10 05:50:47;;;;;;;25.83;15.37;;;;;;;-0.27;100.00;98575.44;5099956;28;20196;-79
2023/12/10 05:53:15;;;;;;;26.03;15.53;;;;;;;-0.25;100.00;98588.44;5089260;28;20236;-78
2023/12/10 05:55:41;;;;;;;24.23;15.77;;;;;;;-0.22;100.00;98596.81;5093874;28;20254;-79
2023/12/10 05:58:08;;;;;;;23.23;15.00;;;;;;;-0.26;100.00;98592.88;5088877;28;20219;-79
2023/12/10 06:00:36;;;;;;;24.63;15.53;;;;;;;-0.23;100.00;98600.41;5097677;27;20223;-79
2023/12/10 06:03:07;;;;;;;22.27;15.40;;;;;;;-0.22;100.00;98595.97;5091668;28;20228;-80
2023/12/10 06:05:36;;;;;;;24.30;15.70;;;;;;;-0.20;100.00;98605.34;5102601;28;20204;-79
2023/12/10 06:08:03;;;;;;;25.43;17.63;;;;;;;-0.19;100.00;98620.16;5086929;28;20756;-78
2023/12/10 06:10:30;;;;;;;22.80;16.30;;;;;;;-0.18;100.00;98615.69;5100868;28;20215;-79
2023/12/10 06:12:56;;;;;;;26.77;17.57;;;;;;;-0.20;100.00;98623.78;5105961;28;20192;-79
2023/12/10 06:15:23;;;;;;;25.67;17.57;;;;;;;-0.14;100.00;98617.78;5106443;28;20196;-77
2023/12/10 06:17:51;;;;;;;30.20;20.50;;;;;;;-0.12;100.00;98618.44;5096812;28;20219;-77
2023/12/10 06:20:18;;;;;;;27.03;19.27;;;;;;;-0.19;100.00;98624.59;5084706;28;20195;-79
2023/12/10 06:22:45;;;;;;;24.87;17.00;;;;;;;-0.18;100.00;98631.47;5092755;28;20202;-79
2023/12/10 06:25:17;;;;;;;24.07;17.70;;;;;;;-0.20;100.00;98633.50;5086453;28;20614;-78
2023/12/10 06:27:44;;;;;;;27.80;17.63;;;;;;;-0.20;100.00;98633.50;5092157;28;20212;-79
2023/12/10 06:30:11;;;;;;;25.47;17.47;;;;;;;-0.21;100.00;98651.09;5091475;28;20220;-78
2023/12/10 06:32:38;;;;;;;26.53;17.87;;;;;;;-0.25;100.00;98649.81;5088901;28;20644;-78
2023/12/10 06:35:05;;;;;;;25.17;17.50;;;;;;;-0.22;100.00;98651.25;5086054;28;20276;-81
2023/12/10 06:37:41;;;;;;;24.13;15.80;;;;;;;-0.19;100.00;98658.81;5088259;28;20209;-79
2023/12/10 06:40:11;;;;;;;22.57;16.10;;;;;;;-0.17;100.00;98673.44;5094706;28;20210;-79
2023/12/10 06:42:38;;;;;;;24.13;16.37;;;;;;;-0.15;100.00;98663.56;5096569;28;20184;-79
2023/12/10 06:45:06;;;;;;;25.07;16.40;;;;;;;-0.17;100.00;98681.34;5088332;28;20196;-79
2023/12/10 06:47:34;;;;;;;21.77;15.60;;;;;;;-0.15;100.00;98703.06;5089416;28;20193;-79
2023/12/10 06:50:03;;;;;;;22.30;15.43;;;;;;;-0.16;100.00;98706.69;5085784;28;20276;-79
2023/12/10 06:52:30;;;;;;;22.23;15.73;;;;;;;-0.15;100.00;98712.75;5088627;28;20247;-79
2023/12/10 06:54:57;;;;;;;22.87;15.77;;;;;;;-0.18;100.00;98713.91;5090081;28;20246;-80
2023/12/10 06:57:27;;;;;;;23.87;16.57;;;;;;;-0.17;100.00;98707.66;5095757;28;20216;-78
2023/12/10 06:59:58;;;;;;;25.60;17.20;;;;;;;-0.18;100.00;98713.09;5097649;28;20203;-82
2023/12/10 07:02:28;;;;;;;22.40;16.00;;;;;;;-0.18;100.00;98706.03;5099439;28;20198;-78
2023/12/10 07:04:55;;;;;;;21.90;14.07;;;;;;;-0.16;100.00;98725.09;5100436;28;20187;-79
2023/12/10 07:07:25;;;;;;;21.33;14.53;;;;;;;-0.12;100.00;98738.75;5098987;28;20274;-79
2023/12/10 07:09:59;;;;;;;18.20;13.83;;;;;;;-0.12;100.00;98741.38;5103010;28;20216;-80
2023/12/10 07:12:27;;;;;;;18.73;13.23;;;;;;;-0.08;100.00;98740.84;5096732;28;20184;-80
2023/12/10 07:14:54;;;;;;;19.77;12.63;;;;;;;-0.07;100.00;98758.31;5095176;28;20208;-79
2023/12/10 07:17:21;;;;;;;14.87;11.50;;;;;;;-0.05;100.00;98747.59;5089684;28;20204;-80
2023/12/10 07:19:49;;;;;;;17.40;11.60;;;;;;;-0.04;100.00;98752.69;5095490;28;20196;-79
2023/12/10 07:22:17;;;;;;;16.47;12.17;;;;;;;-0.01;100.00;98757.63;5106328;28;20184;-79
2023/12/10 07:24:44;;;;;;;15.67;11.40;;;;;;;-0.04;100.00;98763.22;5105449;28;20200;-78
2023/12/10 07:27:11;;;;;;;14.30;10.33;;;;;;;0.05;100.00;98765.81;5106780;28;20373;-79
2023/12/10 07:29:38;;;;;;;15.33;11.50;;;;;;;0.02;100.00;98768.78;5100261;28;20293;-82
2023/12/10 07:32:05;;;;;;;16.10;11.43;;;;;;;0.02;100.00;98759.06;5105903;28;20188;-79
2023/12/10 07:34:35;;;;;;;14.40;10.97;;;;;;;0.09;100.00;98770.56;5098212;28;20219;-79
2023/12/10 07:37:02;;;;;;;15.20;11.23;;;;;;;0.12;100.00;98767.56;5098641;28;20679;-78
2023/12/10 07:39:29;;;;;;;17.33;11.53;;;;;;;0.09;100.00;98775.84;5099157;28;20196;-78
2023/12/10 07:41:56;;;;;;;15.67;11.80;;;;;;;0.11;100.00;98771.19;5101200;28;20220;-81
2023/12/10 07:44:26;;;;;;;18.30;14.13;;;;;;;0.03;100.00;98771.25;5097584;28;20199;-79
2023/12/10 07:46:59;;;;;;;19.47;12.97;;;;;;;-0.01;100.00;98783.94;5100606;28;20917;-79
2023/12/10 07:49:26;;;;;;;17.60;12.03;;;;;;;-0.05;100.00;98795.78;5109582;28;20272;-78
2023/12/10 07:51:53;;;;;;;17.83;13.70;;;;;;;-0.03;100.00;98807.00;5099518;28;20198;-81
2023/12/10 07:54:25;;;;;;;17.43;13.27;;;;;;;-0.02;100.00;98806.00;5101421;28;20203;-82
2023/12/10 07:56:55;;;;;;;17.77;13.10;;;;;;;0.06;100.00;98815.66;5103248;28;20188;-78
2023/12/10 07:59:22;;;;;;;17.57;12.30;;;;;;;0.11;100.00;98815.97;5101420;28;20192;-77
2023/12/10 08:01:52;;;;;;;18.83;12.70;;;;;;;0.18;100.00;98826.66;5103963;28;20655;-79
2023/12/10 08:04:20;;;;;;;16.97;11.90;;;;;;;0.20;100.00;98824.66;5099317;28;20272;-81
2023/12/10 08:06:47;;;;;;;17.13;11.90;;;;;;;0.16;100.00;98820.72;5099741;28;20206;-77
2023/12/10 08:09:13;;;;;;;19.53;13.33;;;;;;;0.28;100.00;98829.88;5101563;28;20216;-77
2023/12/10 08:11:43;;;;;;;19.13;12.77;;;;;;;0.39;100.00;98842.66;5098763;28;20203;-77
2023/12/10 08:14:12;;;;;;;17.77;12.53;;;;;;;0.47;100.00;98836.53;5092435;28;20223;-78
2023/12/10 08:16:42;;;;;;;19.67;12.50;;;;;;;0.51;100.00;98825.47;5102760;28;20264;-77
2023/12/10 08:19:08;;;;;;;17.57;12.53;;;;;;;0.58;100.00;98826.38;5095230;28;20192;-78
2023/12/10 08:21:35;;;;;;;17.73;12.40;;;;;;;0.61;100.00;98835.75;5101972;28;20191;-77
2023/12/10 08:24:03;;;;;;;18.53;12.47;;;;;;;0.62;100.00;98832.13;5105893;28;20203;-78
2023/12/10 08:26:31;;;;;;;18.70;14.67;;;;;;;0.71;100.00;98834.53;5098751;28;20215;-78
2023/12/10 08:28:59;;;;;;;20.40;15.00;;;;;;;0.77;100.00;98838.28;5100908;28;20231;-78
2023/12/10 08:31:25;;;;;;;18.10;13.80;;;;;;;0.84;100.00;98850.56;5103894;28;20192;-78
2023/12/10 08:33:52;;;;;;;16.60;11.90;;;;;;;0.90;100.00;98846.41;5099601;28;20198;-78
2023/12/10 08:36:21;;;;;;;46.80;42.10;;;;;;;1.00;100.00;98851.44;5099584;28;20208;-78
2023/12/10 08:38:48;;;;;;;25.57;22.83;;;;;;;1.25;100.00;98848.44;5096275;28;20231;-77
2023/12/10 08:41:15;;;;;;;13.73;9.03;;;;;;;1.63;100.00;98851.81;5102805;28;20206;-79
2023/12/10 08:43:43;;;;;;;13.73;8.50;;;;;;;1.81;100.00;98853.31;5106791;28;20207;-77
2023/12/10 08:46:20;;;;;;;13.07;7.77;;;;;;;1.99;100.00;98861.69;5107096;28;20195;-78
2023/12/10 08:48:47;;;;;;;18.47;10.77;;;;;;;2.22;100.00;98871.13;5097029;28;20218;-77
2023/12/10 08:51:17;;;;;;;13.63;7.37;;;;;;;2.37;100.00;98868.47;5102134;28;20246;-76
2023/12/10 08:53:47;;;;;;;11.70;6.23;;;;;;;2.55;100.00;98878.63;5103203;28;20277;-76
2023/12/10 08:56:14;;;;;;;5.60;1.97;;;;;;;3.12;100.00;98872.47;5103658;28;20664;-77
2023/12/10 08:58:40;;;;;;;3.23;1.70;;;;;;;3.72;100.00;98869.28;5103933;28;20678;-76
2023/12/10 09:01:07;;;;;;;3.50;1.37;;;;;;;4.17;100.00;98865.25;5103883;28;20299;-77
2023/12/10 09:03:35;;;;;;;4.63;1.10;;;;;;;4.56;100.00;98861.94;5076633;28;20669;-78
2023/12/10 09:06:05;;;;;;;3.07;0.90;;;;;;;4.82;100.00;98846.88;5096929;28;20191;-77
2023/12/10 09:08:34;;;;;;;4.80;1.70;;;;;;;5.15;100.00;98870.00;5098992;28;20290;-81
2023/12/10 09:11:04;;;;;;;1.50;1.10;;;;;;;5.28;100.00;98854.88;5111893;28;20252;-81
2023/12/10 09:13:35;;;;;;;2.03;1.40;;;;;;;5.46;100.00;98845.50;5099631;28;20211;-79
2023/12/10 09:16:03;;;;;;;2.23;1.13;;;;;;;5.58;100.00;98854.47;5105744;28;20298;-79
2023/12/10 09:18:30;;;;;;;2.83;0.70;;;;;;;5.73;100.00;98863.88;5097955;28;20203;-79
2023/12/10 09:20:57;;;;;;;4.53;1.23;;;;;;;5.84;100.00;98873.03;5107378;28;20208;-79
2023/12/10 09:23:25;;;;;;;3.00;0.77;;;;;;;5.91;100.00;98870.41;5087690;28;20215;-80
2023/12/10 09:25:53;;;;;;;2.40;0.70;;;;;;;6.03;100.00;98866.06;5109332;28;20196;-77
2023/12/10 09:28:22;;;;;;;2.53;0.80;;;;;;;6.14;100.00;98855.59;5101784;28;20195;-79
2023/12/10 09:30:49;;;;;;;2.50;0.80;;;;;;;6.27;100.00;98864.56;5100272;28;20188;-78
2023/12/10 09:33:15;;;;;;;2.10;0.80;;;;;;;6.24;100.00;98864.97;5104625;28;20223;-79
2023/12/10 09:35:42;;;;;;;1.80;0.80;;;;;;;6.32;100.00;98864.75;5108492;28;20194;-78
2023/12/10 09:38:13;;;;;;;2.00;0.53;;;;;;;6.24;100.00;98871.13;5089075;28;20199;-81
2023/12/10 09:40:40;;;;;;;2.23;0.70;;;;;;;6.43;100.00;98867.56;5104095;28;20265;-79
2023/12/10 09:43:10;;;;;;;2.87;0.60;;;;;;;6.44;100.00;98869.19;5105929;28;20628;-79
2023/12/10 09:45:37;;;;;;;2.57;0.70;;;;;;;6.45;100.00;98883.31;5096572;28;20249;-81
2023/12/10 09:48:06;;;;;;;2.23;0.70;;;;;;;6.36;100.00;98885.38;5084041;28;20294;-80
2023/12/10 09:50:38;;;;;;;2.50;0.80;;;;;;;6.48;100.00;98890.88;5104466;28;20222;-81
2023/12/10 09:53:09;;;;;;;2.97;0.67;;;;;;;6.55;100.00;98891.66;5078032;28;20239;-80
2023/12/10 09:55:41;;;;;;;1.50;0.70;;;;;;;6.62;100.00;98889.81;5108632;28;20208;-81
2023/12/10 09:58:08;;;;;;;2.77;0.70;;;;;;;6.72;100.00;98903.44;5105900;27;20279;-78
2023/12/10 10:00:37;;;;;;;2.13;0.77;;;;;;;6.86;100.00;98898.91;5104363;28;20186;-78
2023/12/10 10:03:10;;;;;;;1.73;0.60;;;;;;;6.97;100.00;98891.03;5107485;28;20282;-80
2023/12/10 10:05:41;;;;;;;2.83;1.07;;;;;;;7.03;100.00;98895.50;5095648;28;20203;-81
2023/12/10 10:08:12;;;;;;;3.33;0.90;;;;;;;7.06;100.00;98907.56;5109024;28;20199;-80
2023/12/10 10:10:39;;;;;;;3.47;1.10;;;;;;;7.17;100.00;98909.56;5110627;28;20235;-80
2023/12/10 10:13:06;;;;;;;2.67;0.70;;;;;;;7.20;100.00;98900.31;5075620;28;20200;-81
2023/12/10 10:15:33;;;;;;;3.87;0.90;;;;;;;7.39;100.00;98926.81;5094013;28;20196;-78
2023/12/10 10:18:01;;;;;;;2.73;1.00;;;;;;;7.37;100.00;98912.88;5096784;28;20203;-79
2023/12/10 10:20:28;;;;;;;3.87;1.00;;;;;;;7.52;100.00;98909.91;5096632;28;20200;-77
2023/12/10 10:22:58;;;;;;;4.50;1.27;;;;;;;7.47;100.00;98923.88;5099542;28;20680;-76
2023/12/10 10:25:29;;;;;;;4.10;1.33;;;;;;;7.49;100.00;98921.00;5100245;28;20198;-77
2023/12/10 10:27:56;;;;;;;4.60;1.77;;;;;;;7.46;100.00;98916.94;5102364;28;20183;-77
2023/12/10 10:30:27;;;;;;;3.07;1.10;;;;;;;7.53;100.00;98928.34;5098523;28;20215;-78
2023/12/10 10:32:56;;;;;;;4.10;1.17;;;;;;;7.63;100.00;98919.06;5095067;28;20195;-77
2023/12/10 10:35:24;;;;;;;5.97;1.40;;;;;;;7.63;100.00;98919.88;5100353;28;20215;-76
2023/12/10 10:37:51;;;;;;;3.30;1.10;;;;;;;7.63;100.00;98927.06;5103401;28;20250;-77
2023/12/10 10:40:18;;;;;;;2.73;1.10;;;;;;;7.57;100.00;98917.25;5100017;28;20196;-78
2023/12/10 10:42:46;;;;;;;2.63;1.20;;;;;;;7.51;100.00;98922.41;5106474;28;20241;-80
2023/12/10 10:45:14;;;;;;;4.33;0.90;;;;;;;7.58;100.00;98930.38;5092992;28;20670;-79
2023/12/10 10:47:45;;;;;;;5.23;1.20;;;;;;;7.59;100.00;98931.19;5102964;28;20218;-79
2023/12/10 10:50:12;;;;;;;3.40;1.30;;;;;;;7.65;100.00;98936.47;5106998;28;20223;-79
2023/12/10 10:52:55;;;;;;;5.53;1.40;;;;;;;7.75;100.00;98931.47;5104302;28;20306;-80
2023/12/10 10:55:26;;;;;;;2.20;0.90;;;;;;;7.72;100.00;98939.91;5101762;28;20199;-79
2023/12/10 10:57:54;;;;;;;2.57;1.07;;;;;;;7.73;100.00;98946.88;5099620;28;20203;-79
2023/12/10 11:00:21;;;;;;;4.87;1.40;;;;;;;7.62;100.00;98936.91;5104366;28;20188;-78
2023/12/10 11:02:53;;;;;;;3.73;1.10;;;;;;;7.60;100.00;98943.50;5101205;28;20213;-79
2023/12/10 11:05:33;;;;;;;4.60;1.40;;;;;;;7.61;100.00;98948.59;5089310;28;20257;-79
2023/12/10 11:08:01;;;;;;;3.73;1.30;;;;;;;7.64;100.00;98945.50;5101612;28;20199;-80
2023/12/10 11:10:27;;;;;;;6.43;1.70;;;;;;;7.66;100.00;98948.75;5104050;28;20211;-79
2023/12/10 11:13:02;;;;;;;6.63;1.50;;;;;;;7.63;100.00;98948.38;5103094;28;20196;-79
2023/12/10 11:15:30;;;;;;;4.67;1.30;;;;;;;7.70;100.00;98949.94;5104420;28;20215;-80
2023/12/10 11:17:58;;;;;;;5.17;1.40;;;;;;;7.68;100.00;98952.03;5106735;28;20188;-79
2023/12/10 11:20:39;;;;;;;5.37;1.53;;;;;;;7.58;100.00;98954.38;5096879;28;20191;-80